Latest Weather Observations for Cape Bruny AWS

IDT60801

Issued at 9:51 am EST Wednesday 22 September 2021 (issued every 10 minutes, with the page automatically refreshed every 10 minutes)

About weather observations | Map of weather stations | Latest weather observations for TAS | Other Formats
Station Details ID: 094198 Name: CAPE BRUNY (CAPE BRUNY) Lat: -43.49 Lon: 147.14 Height: 59.7 m
Data from the previous 72 hours. | See also: Recent months at Cape Bruny AWS
Date/Time
EST
Temp
°C
App
Temp
°C
Dew
Point
°C
Rel
Hum
%
Delta-T
°C
Wind Press
QNH
hPa
Press
MSL
hPa
Rain since
9am
mm
Dir  Spd
km/h
Gust
km/h
Spd
kts
Gust
kts
22/09:37am 14.6 7.5 6.4 58 4.0 NW 33 52 18 28 1014.7 1014.8 0.0
22/09:30am 14.1 5.7 5.7 57 4.0 NW 39 54 21 29 1014.7 1014.8 0.0
22/09:00am 13.6 6.7 6.5 62 3.4 WNW 32 50 17 27 1015.0 1015.1 0.0
22/08:52am 13.6 6.7 6.5 62 3.4 WNW 32 50 17 27 1015.1 1015.2 0.0
22/08:30am 13.8 5.5 6.2 60 3.6 WNW 39 54 21 29 1015.0 1015.1 0.0
22/08:13am 13.3 6.2 6.2 62 3.4 WNW 33 54 18 29 1014.9 1015.0 0.0
22/08:00am 13.2 6.3 6.5 64 3.2 NW 32 43 17 23 1015.0 1015.1 0.0
22/07:30am 13.9 9.0 5.3 56 4.0 NW 20 30 11 16 1014.9 1015.0 0.0
22/07:00am 13.3 9.2 6.4 63 3.3 NNW 17 30 9 16 1014.9 1015.0 0.0
22/06:45am 13.0 5.8 5.9 62 3.4 WNW 33 52 18 28 1014.6 1014.7 0.0
22/06:30am 12.4 3.4 6.5 67 2.8 WNW 43 56 23 30 1014.4 1014.5 0.0
22/06:25am 12.4 4.9 6.5 67 2.8 NW 35 54 19 29 1014.5 1014.6 0.0
22/06:00am 12.4 3.5 6.7 68 2.7 NW 43 56 23 30 1014.3 1014.4 0.0
22/05:50am 12.5 3.3 6.5 67 2.9 WNW 44 63 24 34 1014.1 1014.2 0.0
22/05:30am 12.6 4.5 6.9 68 2.7 WNW 39 52 21 28 1014.0 1014.1 0.0
22/05:02am 12.8 5.5 7.0 68 2.8 NW 35 54 19 29 1013.8 1013.9 0.0
22/05:00am 12.8 5.0 6.8 67 2.9 NW 37 54 20 29 1013.8 1013.9 0.0
22/04:30am 13.1 4.6 7.1 67 2.9 WNW 41 56 22 30 1013.7 1013.8 0.0
22/04:00am 12.8 6.1 7.5 70 2.6 WNW 32 50 17 27 1013.9 1014.0 0.0
22/03:39am 12.6 4.6 7.5 71 2.5 WNW 39 57 21 31 1013.9 1014.0 0.0
22/03:30am 12.6 4.2 7.5 71 2.5 WNW 41 57 22 31 1013.9 1014.0 0.0
22/03:00am 12.1 4.2 7.8 75 2.1 WNW 39 59 21 32 1014.1 1014.2 0.0
22/02:50am 12.1 4.6 8.0 76 2.0 WNW 37 57 20 31 1014.1 1014.2 0.0
22/02:30am 12.1 4.2 7.8 75 2.1 WNW 39 50 21 27 1014.6 1014.7 0.0
22/02:00am 11.8 5.0 7.9 77 1.9 WNW 33 50 18 27 1015.0 1015.1 0.0
22/01:30am 11.7 4.5 7.6 76 2.0 WNW 35 54 19 29 1015.0 1015.1 0.0
22/01:27am 11.7 4.5 7.6 76 2.0 WNW 35 54 19 29 1015.0 1015.1 0.0
22/01:00am 11.4 6.0 7.9 79 1.7 WNW 26 39 14 21 1015.4 1015.5 0.0
22/12:30am 11.5 5.2 7.4 76 2.0 WNW 30 43 16 23 1015.4 1015.5 0.0
22/12:00am 11.6 3.9 7.3 75 2.1 WNW 37 48 20 26 1015.3 1015.4 0.0
 
Date/Time
EST
Temp
°C
App
Temp
°C
Dew
Point
°C
Rel
Hum
%
Delta-T
°C
Wind Press
QNH
hPa
Press
MSL
hPa
Rain since
9am
mm
Dir  Spd
km/h
Gust
km/h
Spd
kts
Gust
kts
21/11:46pm 11.4 4.7 7.5 77 1.9 WNW 32 50 17 27 1015.3 1015.4 0.0
21/11:30pm 10.9 5.5 7.8 81 1.5 WNW 26 39 14 21 1015.5 1015.6 0.0
21/11:00pm 9.3 7.4 6.6 83 1.3 NNE 6 9 3 5 1015.8 1015.9 0.0
21/10:30pm 10.0 9.3 7.1 82 1.4 CALM 0 0 0 0 1016.1 1016.2 0.0
21/10:00pm 10.3 9.7 7.2 81 1.5 CALM 0 0 0 0 1016.0 1016.1 0.0
21/09:30pm 10.4 8.6 7.3 81 1.5 W 6 7 3 4 1016.1 1016.2 0.0
21/09:00pm 10.6 7.6 7.7 82 1.4 SW 13 15 7 8 1016.3 1016.4 0.0
21/08:30pm 10.7 8.3 7.2 79 1.7 W 9 11 5 6 1016.3 1016.4 0.0
21/08:00pm 10.8 6.0 7.5 80 1.6 W 22 32 12 17 1016.0 1016.1 0.0
21/07:30pm 11.1 5.4 6.8 75 2.0 W 26 32 14 17 1015.8 1015.9 0.0
21/07:00pm 11.1 5.8 6.6 74 2.1 W 24 32 13 17 1015.7 1015.8 0.0
21/06:30pm 11.0 5.9 7.5 79 1.7 W 24 30 13 16 1015.5 1015.6 0.0
21/06:00pm 11.4 4.5 7.1 75 2.1 W 33 44 18 24 1015.1 1015.2 0.0
21/05:30pm 12.0 4.2 6.7 70 2.5 WNW 37 50 20 27 1014.5 1014.6 0.0
21/05:00pm 11.7 4.8 6.6 71 2.4 WNW 32 39 17 21 1014.6 1014.7 0.0
21/04:30pm 11.7 4.3 6.6 71 2.4 WNW 35 46 19 25 1014.1 1014.2 0.0
21/04:00pm 12.6 4.7 6.2 65 3.0 WNW 37 56 20 30 1013.9 1014.0 0.0
21/03:30pm 12.7 5.2 6.3 65 3.0 WNW 35 54 19 29 1013.9 1014.0 0.0
21/03:26pm 13.2 6.0 6.1 62 3.4 WNW 33 54 18 29 1013.8 1013.9 0.0
21/03:00pm 12.4 5.2 5.8 64 3.1 WNW 33 48 18 26 1013.9 1014.0 0.0
21/02:30pm 11.3 3.5 5.0 65 2.9 WNW 35 46 19 25 1014.2 1014.3 0.0
21/02:00pm 10.9 2.4 5.0 67 2.7 WNW 39 52 21 28 1014.2 1014.3 0.0
21/01:30pm 10.7 2.0 4.2 64 2.9 WNW 39 57 21 31 1014.1 1014.2 0.0
21/01:08pm 10.9 2.2 4.1 63 3.0 WNW 39 59 21 32 1014.3 1014.4 0.0
21/01:00pm 10.0 0.9 4.2 67 2.6 WNW 41 56 22 30 1014.7 1014.8 0.0
21/12:30pm 9.9 1.6 4.1 67 2.6 WNW 37 50 20 27 1015.1 1015.2 0.0
21/12:00pm 9.5 1.1 3.7 67 2.5 WNW 37 50 20 27 1015.7 1015.8 0.0
21/11:30am 9.8 1.7 3.5 65 2.7 WNW 35 46 19 25 1016.0 1016.1 0.0
21/11:00am 10.1 4.4 2.9 61 3.1 WNW 22 30 12 16 1016.2 1016.3 0.0
21/10:30am 10.8 4.3 2.4 56 3.6 WNW 26 37 14 20 1016.2 1016.3 0.0
21/10:00am 9.2 1.4 1.4 58 3.2 W 32 39 17 21 1016.3 1016.4 0.0
21/09:30am 9.2 0.5 2.3 62 2.9 W 37 50 20 27 1016.0 1016.1 0.0
21/09:00am 8.5 -1.3 2.5 66 2.5 W 43 56 23 30 1015.8 1015.9 5.4
21/08:30am 7.8 0.0 2.9 71 2.1 W 33 44 18 24 1015.8 1015.9 5.2
21/08:00am 6.4 -3.2 3.2 80 1.3 WSW 43 56 23 30 1015.4 1015.5 5.2
21/07:42am 6.9 -2.9 2.4 73 1.9 W 43 67 23 36 1015.4 1015.5 5.2
21/07:30am 6.8 -2.7 1.7 70 2.1 W 41 50 22 27 1015.3 1015.4 5.2
21/07:02am 6.8 -3.4 3.1 77 1.6 WSW 46 67 25 36 1015.2 1015.3 5.2
21/07:00am 7.2 -2.8 2.3 71 2.0 WSW 44 57 24 31 1015.3 1015.4 5.2
21/06:51am 7.0 -2.2 1.3 67 2.3 WSW 39 57 21 31 1015.0 1015.1 5.2
21/06:30am 6.5 -2.5 2.4 75 1.7 W 39 52 21 28 1014.6 1014.7 5.2
21/06:00am 5.6 -4.3 2.8 82 1.2 W 44 52 24 28 1013.9 1014.0 5.2
21/05:39am 5.9 -3.3 3.4 84 1.0 W 41 59 22 32 1013.6 1013.7 5.2
21/05:30am 6.0 -2.5 3.3 83 1.1 W 37 46 20 25 1013.6 1013.7 5.2
21/05:02am 5.8 -3.0 3.8 87 0.8 W 39 57 21 31 1013.5 1013.6 5.0
21/05:00am 5.7 -3.1 3.5 86 0.9 W 39 56 21 30 1013.4 1013.5 5.0
21/04:42am 6.1 -3.5 3.4 83 1.1 WSW 43 72 23 39 1013.5 1013.6 4.8
21/04:41am 6.3 -2.9 3.6 83 1.1 WSW 41 72 22 39 1013.5 1013.6 4.8
21/04:37am 6.2 -1.9 3.0 80 1.3 WSW 35 56 19 30 1013.5 1013.6 4.8
21/04:30am 6.0 -2.9 2.8 80 1.3 WSW 39 50 21 27 1013.5 1013.6 4.8
21/04:10am 4.8 -5.9 2.7 86 0.9 WSW 48 67 26 36 1013.4 1013.5 4.6
21/04:00am 6.8 -2.1 2.9 76 1.6 SW 39 57 21 31 1013.4 1013.5 4.4
21/03:30am 6.1 -4.3 1.8 74 1.7 WSW 46 65 25 35 1012.8 1012.9 4.4
21/03:01am 6.1 -5.6 3.1 81 1.3 WSW 54 72 29 39 1012.4 1012.5 4.4
21/03:00am 6.0 -5.4 2.8 80 1.3 WSW 52 69 28 37 1012.3 1012.4 4.4
21/02:30am 6.5 -3.8 2.8 77 1.5 WSW 46 65 25 35 1012.0 1012.1 4.4
21/02:02am 6.0 -4.2 3.2 82 1.2 SW 46 65 25 35 1012.0 1012.1 4.4
21/02:00am 5.8 -4.0 3.5 85 1.0 SW 44 57 24 31 1012.1 1012.2 4.4
21/01:30am 6.8 -2.8 3.6 80 1.4 WSW 43 59 23 32 1011.5 1011.6 3.8
21/01:00am 6.1 -4.3 4.4 89 0.7 WSW 48 70 26 38 1011.4 1011.5 3.8
21/12:35am 6.5 -3.7 3.1 79 1.4 WSW 46 65 25 35 1011.1 1011.2 3.6
21/12:30am 6.9 -3.8 2.8 75 1.7 WSW 48 65 26 35 1010.8 1010.9 3.6
21/12:00am 6.9 -2.0 3.0 76 1.6 SW 39 57 21 31 1010.4 1010.5 3.6
 
Date/Time
EST
Temp
°C
App
Temp
°C
Dew
Point
°C
Rel
Hum
%
Delta-T
°C
Wind Press
QNH
hPa
Press
MSL
hPa
Rain since
9am
mm
Dir  Spd
km/h
Gust
km/h
Spd
kts
Gust
kts
20/11:30pm 6.6 -3.1 3.0 78 1.5 WSW 43 65 23 35 1009.8 1009.8 3.6
20/11:02pm 6.6 -3.1 3.0 78 1.5 SW 43 61 23 33 1009.5 1009.5 3.6
20/11:00pm 6.5 -3.4 2.6 76 1.6 SW 44 61 24 33 1009.5 1009.5 3.6
20/10:30pm 6.9 -2.4 3.0 76 1.6 SW 41 59 22 32 1009.3 1009.3 3.6
20/10:06pm 6.8 -3.8 3.2 78 1.5 SW 48 67 26 36 1008.7 1008.7 3.6
20/10:00pm 7.1 -3.7 4.1 81 1.3 SW 50 67 27 36 1008.6 1008.6 3.6
20/09:35pm 6.8 -2.4 3.6 80 1.4 SW 41 61 22 33 1007.9 1007.9 3.6
20/09:30pm 6.6 -2.6 3.6 81 1.3 SW 41 57 22 31 1007.9 1007.9 3.6
20/09:00pm 6.9 -2.7 3.5 79 1.4 SW 43 61 23 33 1007.2 1007.2 2.8
20/08:30pm 8.0 -1.7 4.0 76 1.7 SW 44 63 24 34 1006.7 1006.7 2.6
20/08:00pm 7.9 -2.1 4.1 77 1.7 SW 46 65 25 35 1006.1 1006.1 2.6
20/07:33pm 7.8 -2.3 4.0 77 1.6 SW 46 65 25 35 1005.5 1005.5 2.6
20/07:30pm 7.6 -2.9 3.5 75 1.8 SW 48 65 26 35 1005.5 1005.5 2.6
20/07:00pm 7.6 -1.4 4.7 82 1.3 WSW 41 61 22 33 1004.4 1004.4 2.6
20/06:30pm 8.2 -1.6 3.5 72 2.0 SW 44 65 24 35 1003.4 1003.4 2.6
20/06:04pm 8.5 -1.8 4.5 76 1.8 WSW 48 70 26 38 1002.5 1002.5 2.6
20/06:00pm 8.5 -1.4 4.9 78 1.6 WSW 46 61 25 33 1002.6 1002.6 2.6
20/05:53pm 8.1 -2.4 3.9 75 1.8 WSW 48 67 26 36 1002.4 1002.4 2.6
20/05:30pm 8.1 -2.1 5.0 81 1.4 WSW 48 65 26 35 1001.4 1001.5 2.6
20/05:20pm 8.0 -3.6 5.8 86 1.0 WSW 56 74 30 40 1001.2 1001.3 2.6
20/05:13pm 7.7 -3.7 5.0 83 1.2 WSW 54 74 29 40 1001.1 1001.2 2.4
20/05:07pm 8.0 -1.2 5.5 84 1.1 WSW 43 63 23 34 1001.0 1001.1 2.4
20/05:00pm 7.5 -0.9 5.6 88 0.9 WSW 39 56 21 30 1000.9 1001.0 2.4
20/04:46pm 7.4 -2.0 5.4 87 0.9 WSW 44 67 24 36 1000.8 1000.9 2.0
20/04:30pm 8.0 -2.1 5.8 86 1.0 W 48 65 26 35 1000.2 1000.3 2.0
20/04:01pm 8.6 -2.4 5.2 79 1.5 W 52 70 28 38 999.1 999.2 2.0
20/04:00pm 8.5 -2.9 4.9 78 1.6 W 54 70 29 38 999.1 999.2 2.0
20/03:49pm 8.1 -3.4 4.5 78 1.6 W 54 72 29 39 998.7 998.8 2.0
20/03:30pm 9.0 -2.3 3.4 68 2.4 W 52 69 28 37 998.3 998.4 1.8
20/03:27pm 8.9 -2.0 3.7 70 2.3 W 50 69 27 37 998.2 998.3 1.8
20/03:00pm 7.9 -2.5 4.1 77 1.7 W 48 59 26 32 998.4 998.5 1.8
20/02:30pm 8.1 -1.2 5.0 81 1.4 W 43 54 23 29 997.8 997.9 1.8
20/02:08pm 7.2 -2.1 5.0 86 1.0 W 43 61 23 33 997.6 997.7 1.8
20/02:00pm 7.1 -2.2 4.8 85 1.0 W 43 57 23 31 997.5 997.6 1.6
20/01:30pm 7.9 -0.1 5.7 86 1.0 W 37 48 20 26 997.3 997.4 1.2
20/01:11pm 6.9 0.0 4.6 85 1.0 WSW 30 52 16 28 997.3 997.4 1.2
20/01:00pm 7.2 0.6 4.3 82 1.3 W 28 37 15 20 997.2 997.3 0.8
20/12:39pm 7.1 -1.0 3.5 78 1.5 W 35 54 19 29 997.0 997.1 0.4
20/12:30pm 7.3 -3.2 3.4 76 1.7 W 48 59 26 32 996.9 997.0 0.4
20/12:00pm 8.7 1.3 3.9 72 2.1 WNW 32 50 17 27 996.6 996.7 0.2
20/11:59am 8.5 1.0 3.6 71 2.1 WNW 32 50 17 27 996.6 996.7 0.2
20/11:30am 7.3 0.6 3.9 79 1.5 WNW 28 41 15 22 996.8 996.9 0.0
20/11:00am 9.6 0.4 3.4 65 2.7 WNW 41 50 22 27 996.6 996.7 0.0
20/10:40am 8.3 -1.0 2.8 68 2.3 WNW 41 59 22 32 996.6 996.7 0.0
20/10:30am 9.3 0.1 3.5 67 2.5 WNW 41 57 22 31 996.5 996.6 0.0
20/10:26am 9.5 1.1 3.5 66 2.6 WNW 37 56 20 30 996.4 996.5 0.0
20/10:00am 8.4 0.3 3.3 70 2.2 WNW 35 44 19 24 996.5 996.6 0.0
20/09:30am 7.3 -1.6 2.8 73 1.9 WNW 39 50 21 27 996.3 996.4 0.0
20/09:00am 7.9 0.3 3.8 75 1.8 WNW 33 43 18 23 996.2 996.2 7.0
20/08:30am 7.3 -0.6 4.4 82 1.3 W 35 46 19 25 995.7 995.7 7.0
20/08:19am 7.4 0.7 3.5 76 1.7 W 28 48 15 26 995.7 995.7 7.0
20/08:00am 8.1 2.3 4.3 77 1.7 WNW 24 32 13 17 995.6 995.6 7.0
20/07:30am 7.1 0.9 4.2 82 1.3 WNW 26 37 14 20 995.0 995.0 7.0
20/07:00am 6.5 -0.2 3.8 83 1.2 WNW 28 41 15 22 994.8 994.8 7.0
20/06:30am 6.6 0.0 4.4 86 1.0 WNW 28 43 15 23 994.6 994.6 6.8
20/06:00am 6.1 0.2 3.9 86 0.9 NW 24 35 13 19 994.3 994.3 6.8
20/05:30am 6.3 -0.3 4.0 85 1.0 NW 28 39 15 21 993.7 993.7 6.8
20/05:00am 6.3 0.4 4.1 86 1.0 WNW 24 33 13 18 994.3 994.3 6.6
20/04:30am 5.9 0.8 3.9 87 0.8 NW 20 30 11 16 993.9 993.9 6.4
20/04:00am 5.8 0.8 3.5 85 1.0 NNW 19 28 10 15 994.5 994.5 5.6
20/03:30am 5.1 0.4 3.0 86 0.9 NNW 17 24 9 13 994.3 994.3 5.6
20/03:00am 6.1 0.1 3.6 84 1.1 NW 24 41 13 22 994.9 994.9 5.6
20/02:30am 6.8 -1.2 3.9 82 1.2 WNW 35 43 19 23 995.3 995.3 5.2
20/02:00am 7.4 -1.9 2.7 72 2.0 WNW 41 59 22 32 995.5 995.5 5.0
20/01:41am 7.5 0.0 3.4 75 1.7 WNW 32 69 17 37 995.8 995.8 5.0
20/01:40am 7.6 0.5 3.8 77 1.6 WNW 30 52 16 28 995.7 995.7 5.0
20/01:30am 7.6 2.5 3.1 73 1.9 NW 19 24 10 13 996.1 996.1 4.8
20/01:00am 8.0 1.9 2.5 68 2.3 WNW 24 39 13 21 996.2 996.2 4.8
20/12:30am 7.4 1.7 2.7 72 2.0 NNW 22 30 12 16 996.4 996.5 4.8
20/12:00am 7.2 1.4 2.5 72 2.0 NW 22 43 12 23 996.7 996.8 4.8
 
Date/Time
EST
Temp
°C
App
Temp
°C
Dew
Point
°C
Rel
Hum
%
Delta-T
°C
Wind Press
QNH
hPa
Press
MSL
hPa
Rain since
9am
mm
Dir  Spd
km/h
Gust
km/h
Spd
kts
Gust
kts
19/11:30pm 8.3 0.6 2.3 66 2.5 WNW 32 44 17 24 996.8 996.9 4.8
19/11:04pm 8.9 1.6 2.3 63 2.8 NW 30 48 16 26 997.0 997.1 4.8
19/11:00pm 8.8 1.9 2.6 65 2.6 NW 28 35 15 19 996.9 997.0 4.8
19/10:30pm 8.7 1.8 2.3 64 2.7 WNW 28 43 15 23 996.9 997.0 4.8
19/10:00pm 8.5 1.1 1.6 62 2.9 WNW 30 43 16 23 997.3 997.4 4.8
19/09:30pm 7.9 1.3 2.2 67 2.4 WNW 26 39 14 21 997.6 997.7 4.8
19/09:06pm 8.5 -0.2 2.1 64 2.7 WNW 37 56 20 30 997.8 997.9 4.8
19/09:00pm 9.0 0.7 2.1 62 2.9 WNW 35 48 19 26 998.1 998.2 4.8
19/08:30pm 8.4 1.1 2.6 67 2.4 W 30 37 16 20 997.9 998.0 4.8
19/08:00pm 7.9 1.8 2.6 69 2.2 WNW 24 32 13 17 998.1 998.2 4.8
19/07:34pm 7.9 -0.3 2.6 69 2.2 WNW 35 56 19 30 997.9 998.0 4.8
19/07:30pm 8.1 -1.6 2.8 69 2.2 WNW 43 59 23 32 997.9 998.0 4.8
19/07:06pm 9.2 0.9 2.1 61 3.0 WNW 35 69 19 37 997.9 998.0 4.8
19/07:05pm 9.2 1.3 2.1 61 3.0 W 33 69 18 37 997.8 997.9 4.8
19/07:03pm 9.1 1.9 2.9 65 2.7 W 30 50 16 27 997.9 998.0 4.8
19/07:00pm 9.0 1.4 3.0 66 2.6 W 32 46 17 25 997.9 998.0 4.8
19/06:35pm 9.2 2.4 3.2 66 2.6 W 28 46 15 25 997.8 997.9 4.8
19/06:30pm 8.9 3.9 4.5 74 1.9 W 20 32 11 17 998.1 998.2 4.8
19/06:00pm 8.2 2.4 4.6 78 1.6 W 24 33 13 18 997.3 997.4 4.8
19/05:30pm 8.6 -1.9 5.4 80 1.4 W 50 59 27 32 997.3 997.4 4.8
19/05:00pm 10.1 -1.3 4.9 70 2.4 W 54 63 29 34 996.7 996.8 4.8
19/04:30pm 11.1 0.9 5.0 66 2.8 W 48 61 26 33 996.1 996.1 4.8
19/04:23pm 11.2 1.8 4.4 63 3.1 W 43 61 23 33 996.2 996.2 4.8
19/04:00pm 11.6 1.4 5.3 65 2.9 WNW 48 61 26 33 996.3 996.4 4.8
19/03:52pm 11.6 -0.1 5.3 65 2.9 W 56 74 30 40 995.9 995.9 4.8
19/03:45pm 12.0 1.3 4.7 61 3.3 W 50 74 27 40 996.0 996.0 4.8
19/03:40pm 12.3 3.3 4.5 59 3.6 W 41 65 22 35 996.1 996.1 4.8
19/03:30pm 12.3 3.5 5.5 63 3.2 WNW 41 54 22 29 995.9 995.9 4.8
19/03:11pm 12.2 1.6 4.9 61 3.4 W 50 70 27 38 996.1 996.1 4.8
19/03:00pm 12.8 2.6 5.0 59 3.6 W 48 65 26 35 996.3 996.4 4.8
19/02:30pm 12.1 2.3 5.3 63 3.2 WNW 46 63 25 34 996.2 996.2 4.8
19/02:20pm 11.7 -0.5 5.8 67 2.8 WNW 59 83 32 45 996.3 996.4 4.8
19/02:19pm 11.6 -0.9 5.9 68 2.7 WNW 61 87 33 47 996.4 996.5 4.8
19/02:11pm 11.2 -3.5 5.3 67 2.7 W 72 93 39 50 996.5 996.6 4.8
19/02:07pm 11.6 -2.9 4.8 63 3.1 W 70 93 38 50 996.4 996.5 4.8
19/02:00pm 12.2 0.7 7.1 71 2.5 W 57 80 31 43 996.4 996.5 4.8
19/01:36pm 13.4 2.6 7.6 68 2.9 W 54 72 29 39 995.9 995.9 4.8
19/01:30pm 13.1 1.3 7.3 68 2.8 W 59 72 32 39 995.8 995.8 4.8
19/01:05pm 11.8 0.8 6.9 72 2.3 W 54 72 29 39 996.3 996.4 4.8
19/01:00pm 11.6 0.8 7.5 76 2.0 W 54 70 29 38 996.5 996.6 4.8
19/12:43pm 11.8 3.2 8.1 78 1.8 WNW 43 61 23 33 996.5 996.6 4.6
19/12:31pm 13.1 5.3 6.7 65 3.1 NW 37 56 20 30 996.0 996.0 4.4
19/12:30pm 13.1 5.0 6.9 66 3.0 WNW 39 56 21 30 996.0 996.0 4.4
19/12:21pm 14.1 7.5 7.9 66 3.1 WNW 32 54 17 29 996.0 996.0 4.4
19/12:07pm 13.9 10.1 9.9 77 2.1 NW 20 39 11 21 996.4 996.5 4.4
19/12:00pm 13.0 11.1 10.4 84 1.4 NNW 11 20 6 11 997.0 997.1 4.4
19/11:30am 11.4 8.1 9.5 88 1.0 NW 17 22 9 12 997.9 998.0 4.4
19/11:00am 11.0 7.1 9.4 90 0.8 NW 20 28 11 15 997.8 997.9 4.4
19/10:30am 10.2 4.1 8.1 87 1.0 WNW 30 37 16 20 997.9 998.0 3.2
19/10:00am 10.4 1.8 8.0 85 1.2 WNW 43 65 23 35 998.0 998.1 2.0
19/09:56am 10.7 3.3 8.3 85 1.2 WNW 37 65 20 35 998.1 998.2 2.0

Other formats

Comma delimited format used in spreadsheet applications
http://www.bom.gov.au/fwo/IDT60801/IDT60801.95967.axf

JavaScript Object Notation format (JSON) in row-major order
http://www.bom.gov.au/fwo/IDT60801/IDT60801.95967.json

Data quality

Most of these data are generated automatically and are frequently updated. Quality checks on data are not normally performed. It is possible for incorrect values to appear. Refer to information at About Latest Weather Observations and please check the disclaimer before using these data.